createdAt,value
2022-08-02T00:00:30.870Z,14.90
2022-08-02T00:06:33.069Z,14.90
2022-08-02T00:12:35.072Z,14.80
2022-08-02T00:18:37.371Z,14.80
2022-08-02T00:24:39.573Z,14.80
2022-08-02T00:30:41.613Z,14.60
2022-08-02T00:36:43.579Z,14.60
2022-08-02T00:42:45.561Z,14.60
2022-08-02T00:48:47.833Z,14.50
2022-08-02T00:54:51.680Z,14.40
2022-08-02T01:00:53.885Z,14.30
2022-08-02T01:06:55.891Z,14.40
2022-08-02T01:12:57.889Z,14.40
2022-08-02T01:19:30.310Z,14.20
2022-08-02T01:25:58.118Z,14.10
2022-08-02T01:32:11.097Z,13.90
2022-08-02T01:38:38.015Z,13.90
2022-08-02T01:44:43.503Z,13.80
2022-08-02T01:50:48.846Z,13.70
2022-08-02T01:56:52.135Z,13.70
2022-08-02T02:02:57.584Z,13.60
2022-08-02T02:09:02.101Z,13.50
2022-08-02T02:15:04.986Z,13.50
2022-08-02T02:21:07.661Z,13.50
2022-08-02T02:27:14.567Z,13.50
2022-08-02T02:33:19.572Z,13.40
2022-08-02T02:39:24.034Z,13.30
2022-08-02T02:45:26.980Z,13.40
2022-08-02T02:51:30.778Z,13.30
2022-08-02T02:57:34.058Z,13.20
2022-08-02T03:03:37.423Z,13.20
2022-08-02T03:09:39.369Z,13.10
2022-08-02T03:15:42.627Z,13.00
2022-08-02T03:21:47.015Z,13.00
2022-08-02T03:27:48.969Z,12.80
2022-08-02T03:33:51.283Z,12.80
2022-08-02T03:39:54.775Z,12.60
2022-08-02T03:45:59.701Z,12.70
2022-08-02T03:52:02.123Z,12.80
2022-08-02T03:58:04.342Z,12.80
2022-08-02T04:04:07.841Z,12.90
2022-08-02T04:10:10.992Z,13.00
2022-08-02T04:16:21.145Z,13.10
2022-08-02T04:22:31.446Z,13.30
2022-08-02T04:28:35.207Z,13.30
2022-08-02T04:34:37.170Z,13.40
2022-08-02T04:40:39.384Z,13.50
2022-08-02T04:46:43.098Z,13.40
2022-08-02T04:52:45.985Z,13.30
2022-08-02T04:58:48.083Z,13.20
2022-08-02T05:04:51.698Z,13.10
2022-08-02T05:10:53.671Z,13.10
2022-08-02T05:16:55.653Z,13.50
2022-08-02T05:22:57.900Z,14.00
2022-08-02T05:28:59.896Z,14.40
2022-08-02T05:35:02.619Z,14.60
2022-08-02T05:41:05.798Z,15.00
2022-08-02T05:47:07.766Z,15.20
2022-08-02T05:53:36.431Z,15.30
2022-08-02T06:00:06.585Z,15.70
2022-08-02T06:06:15.127Z,16.10
2022-08-02T06:12:18.746Z,16.00
2022-08-02T06:18:28.594Z,16.20
2022-08-02T06:24:32.943Z,16.50
2022-08-02T06:30:35.019Z,16.70
2022-08-02T06:36:52.316Z,16.90
2022-08-02T06:43:19.761Z,17.10
2022-08-02T06:49:21.972Z,17.40
2022-08-02T06:55:24.030Z,17.40
2022-08-02T07:01:26.113Z,17.70
2022-08-02T07:07:40.950Z,17.90
2022-08-02T07:13:42.943Z,18.30
2022-08-02T07:19:45.157Z,18.40
2022-08-02T07:26:01.895Z,18.90
2022-08-02T07:32:06.179Z,19.10
2022-08-02T07:38:08.555Z,19.50
2022-08-02T07:44:10.897Z,19.70
2022-08-02T07:50:15.719Z,20.10
2022-08-02T07:56:17.742Z,20.50
2022-08-02T08:02:19.866Z,20.90
2022-08-02T08:08:21.927Z,21.30
2022-08-02T08:14:23.925Z,21.60
2022-08-02T08:20:26.000Z,22.10
2022-08-02T08:26:28.018Z,22.60
2022-08-02T08:32:30.015Z,23.10
2022-08-02T08:38:32.038Z,23.50
2022-08-02T08:44:35.958Z,23.50
2022-08-02T08:50:51.395Z,23.60
2022-08-02T08:56:55.277Z,23.90
2022-08-02T09:02:58.145Z,24.70
2022-08-02T09:09:00.151Z,24.90
2022-08-02T09:15:05.777Z,24.90
2022-08-02T09:21:09.287Z,24.60
2022-08-02T09:27:18.143Z,24.10
2022-08-02T09:33:27.978Z,24.40
2022-08-02T09:39:47.686Z,24.90
2022-08-02T09:45:50.146Z,25.80
2022-08-02T09:51:54.781Z,26.60
2022-08-02T09:57:56.923Z,25.80
2022-08-02T10:04:15.722Z,26.20
2022-08-02T10:10:24.146Z,27.00
2022-08-02T10:16:26.201Z,26.80
2022-08-02T10:22:28.636Z,25.90
2022-08-02T10:28:32.594Z,26.10
2022-08-02T10:34:45.225Z,26.80
2022-08-02T10:40:55.582Z,27.90
2022-08-02T10:47:19.070Z,28.20
2022-08-02T10:53:34.581Z,29.00
2022-08-02T10:59:37.468Z,29.70
2022-08-02T11:05:43.444Z,29.20
2022-08-02T11:12:01.195Z,29.40
2022-08-02T11:18:03.204Z,30.10
2022-08-02T11:24:34.936Z,30.20
2022-08-02T11:30:37.658Z,30.20
2022-08-02T11:36:48.417Z,30.00
2022-08-02T11:42:50.727Z,30.60
2022-08-02T11:48:52.858Z,30.10
2022-08-02T11:54:54.895Z,30.10
2022-08-02T12:00:56.929Z,30.30
2022-08-02T12:07:00.477Z,31.10
2022-08-02T12:13:02.918Z,31.60
2022-08-02T12:19:20.253Z,32.20
2022-08-02T12:25:34.265Z,32.50
2022-08-02T12:31:56.859Z,32.60
2022-08-02T12:38:11.026Z,33.40
2022-08-02T12:44:19.745Z,33.20
2022-08-02T12:50:34.691Z,33.20
2022-08-02T12:56:39.391Z,32.90
2022-08-02T13:02:41.356Z,32.90
2022-08-02T13:08:51.349Z,33.60
2022-08-02T13:14:53.386Z,34.10
2022-08-02T13:20:55.470Z,35.50
2022-08-02T13:27:05.154Z,36.70
2022-08-02T13:33:10.372Z,37.10
2022-08-02T13:39:15.747Z,35.50
2022-08-02T13:45:17.831Z,35.40
2022-08-02T13:51:19.906Z,35.50
2022-08-02T13:57:21.919Z,35.10
2022-08-02T14:03:23.985Z,34.10
2022-08-02T14:09:46.153Z,34.80
2022-08-02T14:15:48.231Z,33.80
2022-08-02T14:21:51.347Z,33.50
2022-08-02T14:27:53.416Z,35.30
2022-08-02T14:33:55.401Z,36.60
2022-08-02T14:40:00.340Z,36.20
2022-08-02T14:46:03.275Z,34.60
2022-08-02T14:52:05.466Z,34.60
2022-08-02T14:58:07.436Z,34.90
2022-08-02T15:04:09.428Z,34.10
2022-08-02T15:10:11.396Z,35.00
2022-08-02T15:16:13.452Z,35.70
2022-08-02T15:22:19.039Z,36.00
2022-08-02T15:28:21.874Z,35.20
2022-08-02T15:34:23.920Z,35.30
2022-08-02T15:40:26.197Z,37.50
2022-08-02T15:46:32.091Z,36.80
2022-08-02T15:52:35.059Z,36.50
2022-08-02T15:58:44.031Z,36.10
2022-08-02T16:04:47.765Z,35.60
2022-08-02T16:10:49.821Z,35.00
2022-08-02T16:16:51.812Z,35.50
2022-08-02T16:22:53.817Z,36.50
2022-08-02T16:28:56.979Z,35.40
2022-08-02T16:35:08.127Z,34.70
2022-08-02T16:41:10.964Z,34.70
2022-08-02T16:47:19.676Z,33.80
2022-08-02T16:54:00.574Z,33.40
2022-08-02T17:00:05.725Z,33.40
2022-08-02T17:06:07.721Z,33.90
2022-08-02T17:12:16.049Z,35.10
2022-08-02T17:18:18.576Z,36.70
2022-08-02T17:24:29.552Z,36.30
2022-08-02T17:30:31.583Z,35.90
2022-08-02T17:36:33.549Z,35.00
2022-08-02T17:42:35.650Z,34.20
2022-08-02T17:48:56.917Z,33.40
2022-08-02T17:55:03.329Z,32.60
2022-08-02T18:01:23.632Z,33.20
2022-08-02T18:07:49.090Z,33.20
2022-08-02T18:13:53.894Z,34.00
2022-08-02T18:26:20.910Z,34.80
2022-08-02T18:33:55.016Z,34.20
2022-08-02T18:38:45.737Z,33.80
2022-08-02T18:44:48.854Z,32.80
2022-08-02T18:50:50.884Z,30.80
2022-08-02T18:56:52.975Z,28.50
2022-08-02T19:02:55.322Z,27.00
2022-08-02T19:09:03.542Z,26.20
2022-08-02T19:15:14.971Z,25.40
2022-08-02T19:21:17.728Z,24.80
2022-08-02T19:27:39.685Z,24.30
2022-08-02T19:34:04.887Z,23.90
2022-08-02T19:40:04.123Z,23.60
2022-08-02T19:46:09.011Z,23.30
2022-08-02T19:52:21.284Z,23.20
2022-08-02T19:58:24.525Z,23.00
2022-08-02T20:04:26.605Z,23.00
2022-08-02T20:10:28.687Z,22.90
2022-08-02T20:16:33.278Z,22.80
2022-08-02T20:22:54.879Z,22.60
2022-08-02T20:28:56.871Z,22.50
2022-08-02T20:35:05.107Z,22.30
2022-08-02T20:41:07.147Z,22.20
2022-08-02T20:47:09.134Z,22.10
2022-08-02T20:53:24.071Z,22.00
2022-08-02T20:59:28.173Z,21.90
2022-08-02T21:05:54.356Z,21.90
2022-08-02T21:11:53.726Z,21.90
2022-08-02T21:17:59.739Z,22.00
2022-08-02T21:24:05.039Z,22.00
2022-08-02T21:30:08.478Z,21.90
2022-08-02T21:36:11.850Z,21.80
2022-08-02T21:42:22.355Z,21.70
2022-08-02T21:48:25.322Z,21.60
2022-08-02T21:54:28.600Z,21.50
2022-08-02T22:00:30.559Z,21.30
2022-08-02T22:06:32.503Z,21.10
2022-08-02T22:12:35.573Z,20.90
2022-08-02T22:18:37.929Z,20.60
2022-08-02T22:24:41.774Z,20.50
2022-08-02T22:30:44.884Z,20.40
2022-08-02T22:36:46.916Z,20.20
2022-08-02T22:42:48.876Z,20.10
2022-08-02T22:48:51.304Z,20.00
2022-08-02T22:54:54.873Z,19.70
2022-08-02T22:58:43.845Z,34.90
2022-08-02T23:00:56.979Z,19.50
2022-08-02T23:06:59.075Z,19.50
2022-08-02T23:13:01.062Z,19.50
2022-08-02T23:19:21.690Z,19.50
2022-08-02T23:25:23.759Z,19.40
2022-08-02T23:31:37.514Z,19.30
2022-08-02T23:38:00.514Z,19.20
2022-08-02T23:44:17.362Z,19.10
2022-08-02T23:50:19.573Z,19.00
2022-08-02T23:56:21.525Z,18.90
